createdAt,value
2019-01-18T00:02:12.713Z,7.57
2019-01-18T00:04:44.507Z,8.27
2019-01-18T00:07:16.385Z,7.70
2019-01-18T00:09:48.231Z,5.90
2019-01-18T00:12:20.066Z,6.20
2019-01-18T00:14:51.867Z,7.43
2019-01-18T00:17:23.727Z,5.27
2019-01-18T00:19:55.566Z,6.37
2019-01-18T00:22:27.423Z,7.17
2019-01-18T00:24:59.354Z,7.77
2019-01-18T00:27:31.176Z,6.83
2019-01-18T00:30:04.923Z,7.10
2019-01-18T00:32:36.823Z,7.03
2019-01-18T00:35:09.032Z,5.63
2019-01-18T00:37:40.906Z,5.00
2019-01-18T00:40:13.827Z,7.17
2019-01-18T00:42:45.667Z,10.00
2019-01-18T00:45:17.725Z,6.73
2019-01-18T00:47:49.606Z,8.77
2019-01-18T00:50:22.396Z,8.57
2019-01-18T00:52:54.199Z,6.03
2019-01-18T00:55:26.008Z,8.87
2019-01-18T00:57:57.887Z,5.33
2019-01-18T01:00:30.297Z,7.43
2019-01-18T01:03:02.073Z,6.60
2019-01-18T01:05:33.972Z,5.93
2019-01-18T01:08:05.877Z,4.87
2019-01-18T01:10:38.937Z,6.83
2019-01-18T01:13:11.432Z,4.67
2019-01-18T01:15:43.406Z,5.13
2019-01-18T01:18:15.301Z,5.33
2019-01-18T01:20:47.130Z,8.20
2019-01-18T01:23:19.054Z,6.97
2019-01-18T01:25:50.852Z,4.23
2019-01-18T01:28:22.723Z,5.73
2019-01-18T01:30:54.648Z,6.87
2019-01-18T01:33:26.457Z,7.20
2019-01-18T01:35:58.318Z,5.87
2019-01-18T01:38:30.167Z,6.60
2019-01-18T01:41:01.966Z,5.23
2019-01-18T01:43:33.835Z,4.80
2019-01-18T01:46:06.163Z,10.27
2019-01-18T01:48:38.042Z,5.27
2019-01-18T01:51:09.470Z,8.80
2019-01-18T01:53:42.535Z,5.17
2019-01-18T01:56:14.484Z,4.53
2019-01-18T01:58:46.323Z,6.20
2019-01-18T02:01:18.266Z,5.27
2019-01-18T02:03:50.040Z,7.30
2019-01-18T02:06:21.805Z,8.30
2019-01-18T02:08:53.658Z,6.97
2019-01-18T02:11:25.474Z,7.40
2019-01-18T02:13:57.387Z,7.83
2019-01-18T02:16:29.207Z,6.93
2019-01-18T02:19:01.091Z,6.23
2019-01-18T02:21:32.994Z,7.47
2019-01-18T02:24:06.257Z,10.53
2019-01-18T02:26:39.121Z,8.63
2019-01-18T02:29:11.071Z,9.30
2019-01-18T02:31:42.979Z,9.40
2019-01-18T02:34:14.783Z,9.00
2019-01-18T02:36:46.588Z,6.90
2019-01-18T02:39:18.449Z,7.40
2019-01-18T02:41:50.323Z,6.83
2019-01-18T02:44:22.136Z,7.53
2019-01-18T02:46:54.000Z,7.87
2019-01-18T02:49:25.905Z,7.20
2019-01-18T02:51:57.822Z,5.90
2019-01-18T02:54:29.688Z,6.17
2019-01-18T02:57:01.446Z,5.30
2019-01-18T02:59:33.205Z,7.83
2019-01-18T03:02:05.086Z,5.33
2019-01-18T03:04:36.961Z,7.60
2019-01-18T03:07:08.779Z,6.43
2019-01-18T03:09:40.688Z,5.17
2019-01-18T03:12:12.567Z,7.23
2019-01-18T03:14:44.364Z,5.57
2019-01-18T03:17:16.219Z,5.47
2019-01-18T03:19:48.093Z,6.53
2019-01-18T03:22:19.979Z,6.00
2019-01-18T03:24:57.043Z,8.90
2019-01-18T03:27:28.757Z,7.37
2019-01-18T03:30:00.665Z,8.87
2019-01-18T03:32:34.169Z,6.37
2019-01-18T03:35:08.142Z,5.70
2019-01-18T03:37:39.991Z,9.10
2019-01-18T03:40:13.299Z,6.10
2019-01-18T03:42:46.223Z,5.17
2019-01-18T03:45:19.419Z,7.33
2019-01-18T03:47:51.603Z,6.33
2019-01-18T03:50:27.589Z,7.73
2019-01-18T03:52:59.670Z,5.63
2019-01-18T03:55:31.618Z,5.63
2019-01-18T03:58:03.511Z,6.33
2019-01-18T04:00:35.610Z,7.03
2019-01-18T04:03:07.516Z,7.13
2019-01-18T04:05:39.343Z,5.87
2019-01-18T04:08:11.194Z,6.40
2019-01-18T04:10:43.144Z,6.03
2019-01-18T04:13:33.328Z,6.47
2019-01-18T04:16:05.296Z,5.30
2019-01-18T04:18:43.051Z,4.90
2019-01-18T04:21:34.394Z,6.57
2019-01-18T04:24:07.320Z,7.53
2019-01-18T04:26:40.451Z,6.63
2019-01-18T04:29:12.433Z,6.13
2019-01-18T04:31:46.346Z,5.43
2019-01-18T04:34:18.122Z,4.60
2019-01-18T04:36:55.082Z,7.73
2019-01-18T04:39:28.989Z,6.40
2019-01-18T04:42:00.919Z,5.73
2019-01-18T04:44:37.518Z,6.20
2019-01-18T04:47:13.933Z,7.03
2019-01-18T04:49:47.261Z,5.70
2019-01-18T04:52:30.585Z,6.17
2019-01-18T04:55:03.891Z,8.70
2019-01-18T04:57:35.867Z,5.83
2019-01-18T05:00:11.220Z,5.83
2019-01-18T05:02:52.406Z,5.47
2019-01-18T05:05:26.325Z,7.77
2019-01-18T05:07:58.281Z,6.97
2019-01-18T05:10:30.558Z,7.57
2019-01-18T05:13:02.383Z,7.10
2019-01-18T05:15:34.578Z,6.60
2019-01-18T05:18:06.599Z,5.73
2019-01-18T05:20:40.081Z,7.63
2019-01-18T05:23:11.961Z,5.67
2019-01-18T05:25:43.862Z,8.27
2019-01-18T05:28:15.800Z,6.30
2019-01-18T05:30:48.029Z,6.90
2019-01-18T05:33:20.059Z,8.80
2019-01-18T05:35:52.268Z,8.13
2019-01-18T05:38:25.414Z,6.40
2019-01-18T05:40:58.293Z,9.03
2019-01-18T05:43:30.167Z,6.23
2019-01-18T05:46:09.152Z,7.83
2019-01-18T05:48:41.026Z,8.93
2019-01-18T05:51:13.037Z,5.83
2019-01-18T05:53:45.209Z,8.37
2019-01-18T05:56:18.839Z,8.63
2019-01-18T05:58:50.729Z,8.13
2019-01-18T06:01:22.874Z,8.17
2019-01-18T06:04:02.118Z,9.87
2019-01-18T06:09:38.987Z,9.87
2019-01-18T06:12:11.185Z,9.40
2019-01-18T06:14:43.329Z,7.60
2019-01-18T06:17:31.159Z,7.77
2019-01-18T06:20:03.116Z,8.73
2019-01-18T06:22:35.010Z,9.83
2019-01-18T06:25:07.047Z,7.53
2019-01-18T06:27:39.140Z,10.37
2019-01-18T06:30:14.707Z,7.60
2019-01-18T06:32:46.874Z,14.67
2019-01-18T06:35:26.063Z,6.33
2019-01-18T06:38:11.151Z,10.17
2019-01-18T06:40:45.915Z,8.83
2019-01-18T06:43:17.749Z,37.20
2019-01-18T06:48:45.831Z,12.00
2019-01-18T06:51:17.678Z,9.37
2019-01-18T06:53:49.511Z,7.43
2019-01-18T06:56:21.303Z,8.40
2019-01-18T06:58:53.154Z,10.80
2019-01-18T07:01:25.080Z,15.13
2019-01-18T07:03:57.027Z,10.17
2019-01-18T07:06:28.935Z,8.43
2019-01-18T07:09:00.777Z,9.70
2019-01-18T07:11:34.794Z,9.70
2019-01-18T07:14:06.691Z,8.20
2019-01-18T07:16:38.530Z,12.07
2019-01-18T07:19:11.473Z,10.13
2019-01-18T07:21:43.345Z,7.70
2019-01-18T07:24:15.150Z,9.20
2019-01-18T07:26:47.018Z,7.57
2019-01-18T07:29:18.846Z,10.90
2019-01-18T07:31:50.723Z,9.43
2019-01-18T07:34:22.731Z,10.53
2019-01-18T07:36:54.578Z,9.53
2019-01-18T07:39:26.428Z,9.17
2019-01-18T07:41:58.360Z,12.43
2019-01-18T07:44:30.255Z,8.13
2019-01-18T07:47:02.163Z,8.27
2019-01-18T07:49:33.906Z,10.00
2019-01-18T07:52:07.974Z,7.57
2019-01-18T07:54:41.265Z,8.03
2019-01-18T07:57:13.672Z,12.20
2019-01-18T07:59:45.823Z,18.60
2019-01-18T08:02:18.788Z,9.73
2019-01-18T08:04:51.035Z,10.40
2019-01-18T08:07:23.136Z,9.87
2019-01-18T08:09:55.137Z,9.77
2019-01-18T08:12:27.068Z,8.00
2019-01-18T08:14:59.409Z,9.47
2019-01-18T08:17:31.396Z,8.33
2019-01-18T08:20:03.858Z,7.50
2019-01-18T08:22:35.865Z,6.63
2019-01-18T08:25:09.173Z,9.03
2019-01-18T08:27:41.229Z,7.63
2019-01-18T08:30:20.819Z,7.70
2019-01-18T08:32:53.125Z,8.73
2019-01-18T08:35:27.595Z,7.47
2019-01-18T08:38:00.006Z,8.73
2019-01-18T08:40:43.438Z,9.77
2019-01-18T08:43:20.212Z,6.80
2019-01-18T08:45:56.075Z,7.03
2019-01-18T08:48:28.084Z,6.77
2019-01-18T08:51:03.868Z,9.17
2019-01-18T08:53:36.232Z,5.70
2019-01-18T08:56:09.420Z,7.73
2019-01-18T08:58:42.867Z,7.53
2019-01-18T09:01:16.130Z,8.57
2019-01-18T09:03:48.148Z,7.33
2019-01-18T09:06:20.405Z,7.57
2019-01-18T09:08:52.501Z,10.00
2019-01-18T09:11:24.662Z,6.53
2019-01-18T09:13:59.864Z,8.47
2019-01-18T09:16:31.732Z,6.93
2019-01-18T09:19:04.811Z,6.57
2019-01-18T09:21:37.560Z,7.63
2019-01-18T09:24:09.826Z,10.63
2019-01-18T09:26:41.889Z,7.00
2019-01-18T09:29:14.238Z,6.13
2019-01-18T09:31:46.543Z,7.43
2019-01-18T09:34:20.099Z,5.77
2019-01-18T09:36:53.917Z,6.67
2019-01-18T09:39:27.521Z,6.67
2019-01-18T09:42:01.393Z,8.53
2019-01-18T09:44:33.332Z,6.60
2019-01-18T09:47:06.753Z,5.23
2019-01-18T09:49:39.125Z,6.23
2019-01-18T09:52:11.079Z,5.07
2019-01-18T09:54:43.328Z,6.07
2019-01-18T09:57:15.896Z,4.97
2019-01-18T09:59:47.935Z,6.40
2019-01-18T10:02:19.894Z,9.70
2019-01-18T10:04:53.067Z,4.83
2019-01-18T10:07:25.269Z,5.13
2019-01-18T10:09:57.186Z,6.77
2019-01-18T10:12:30.455Z,5.00
2019-01-18T10:15:02.430Z,4.90
2019-01-18T10:17:35.888Z,6.00
2019-01-18T10:20:11.078Z,5.07
2019-01-18T10:22:44.721Z,4.50
2019-01-18T10:25:19.337Z,5.77
2019-01-18T10:27:51.769Z,5.60
2019-01-18T10:30:24.998Z,4.70
2019-01-18T10:32:59.881Z,4.43
2019-01-18T10:35:32.056Z,3.77
2019-01-18T10:38:04.450Z,3.73
2019-01-18T10:40:37.134Z,4.63
2019-01-18T10:43:09.082Z,3.97
2019-01-18T10:45:41.551Z,3.60
2019-01-18T10:48:13.985Z,3.73
2019-01-18T10:50:45.976Z,5.10
2019-01-18T10:53:18.250Z,4.03
2019-01-18T10:55:50.896Z,4.43
2019-01-18T10:58:24.210Z,5.73
2019-01-18T11:00:56.390Z,4.03
2019-01-18T11:03:28.544Z,5.63
2019-01-18T11:06:00.556Z,4.90
2019-01-18T11:08:32.685Z,4.13
2019-01-18T11:11:05.904Z,5.00
2019-01-18T11:13:38.280Z,10.80
2019-01-18T11:16:11.603Z,3.20
2019-01-18T11:18:43.820Z,5.40
2019-01-18T11:21:24.676Z,4.47
2019-01-18T11:23:57.212Z,3.27
2019-01-18T11:26:29.757Z,5.40
2019-01-18T11:29:02.144Z,4.10
2019-01-18T11:31:34.654Z,6.27
2019-01-18T11:34:07.928Z,5.13
2019-01-18T11:36:40.427Z,3.77
2019-01-18T11:39:12.714Z,5.20
2019-01-18T11:41:45.323Z,5.87
2019-01-18T11:44:18.343Z,4.73
2019-01-18T11:46:50.913Z,6.50
2019-01-18T11:49:23.163Z,4.10
2019-01-18T11:51:55.275Z,3.30
2019-01-18T11:54:28.278Z,4.67
2019-01-18T11:57:01.086Z,2.27
2019-01-18T11:59:33.344Z,2.80
2019-01-18T12:02:06.010Z,2.10
2019-01-18T12:04:38.379Z,2.47
2019-01-18T12:07:10.510Z,2.63
2019-01-18T12:09:42.706Z,3.40
2019-01-18T12:12:14.711Z,2.60
2019-01-18T12:14:46.712Z,1.97
2019-01-18T12:17:18.802Z,3.60
2019-01-18T12:19:52.093Z,4.30
2019-01-18T12:22:24.621Z,5.63
2019-01-18T12:24:57.058Z,2.60
2019-01-18T12:27:30.079Z,6.60
2019-01-18T12:30:03.518Z,9.00
2019-01-18T12:32:38.023Z,5.03
2019-01-18T12:35:12.230Z,2.33
2019-01-18T12:37:44.635Z,3.77
2019-01-18T12:40:17.636Z,2.93
2019-01-18T12:42:50.175Z,2.37
2019-01-18T12:45:23.026Z,3.53
2019-01-18T12:47:56.282Z,2.33
2019-01-18T12:50:33.586Z,2.90
2019-01-18T12:53:07.359Z,3.63
2019-01-18T12:55:40.921Z,2.47
2019-01-18T12:58:13.165Z,2.50
2019-01-18T13:00:45.532Z,4.23
2019-01-18T13:03:18.810Z,4.00
2019-01-18T13:05:52.718Z,2.57
2019-01-18T13:08:24.806Z,2.93
2019-01-18T13:10:57.001Z,2.53
2019-01-18T13:13:29.391Z,4.83
2019-01-18T13:16:25.206Z,3.17
2019-01-18T13:19:00.331Z,2.47
2019-01-18T13:21:33.531Z,2.57
2019-01-18T13:24:14.188Z,5.40
2019-01-18T13:26:48.852Z,1.90
2019-01-18T13:29:20.779Z,3.30
2019-01-18T13:31:53.782Z,2.47
2019-01-18T13:34:26.197Z,1.83
2019-01-18T13:36:58.211Z,3.03
2019-01-18T13:39:30.438Z,2.77
2019-01-18T13:42:02.902Z,2.70
2019-01-18T13:44:35.430Z,2.30
2019-01-18T13:47:08.197Z,4.57
2019-01-18T13:49:40.316Z,1.83
2019-01-18T13:52:13.336Z,2.17
2019-01-18T13:54:45.357Z,3.20
2019-01-18T13:57:17.563Z,2.40
2019-01-18T13:59:50.292Z,4.53
2019-01-18T14:02:23.026Z,2.57
2019-01-18T14:04:55.685Z,3.57
2019-01-18T14:07:30.239Z,2.67
2019-01-18T14:10:03.774Z,2.50
2019-01-18T14:12:38.928Z,3.60
2019-01-18T14:15:12.020Z,2.23
2019-01-18T14:17:44.135Z,2.20
2019-01-18T14:20:20.793Z,3.87
2019-01-18T14:22:50.577Z,2.83
2019-01-18T14:25:22.602Z,2.53
2019-01-18T14:27:55.832Z,3.53
2019-01-18T14:30:29.360Z,4.23
2019-01-18T14:33:03.822Z,5.07
2019-01-18T14:35:36.580Z,6.30
2019-01-18T14:38:09.754Z,2.73
2019-01-18T14:40:42.450Z,3.70
2019-01-18T14:43:14.368Z,4.77
2019-01-18T14:45:47.786Z,5.57
2019-01-18T14:48:22.251Z,3.33
2019-01-18T14:50:55.570Z,2.73
2019-01-18T14:53:27.712Z,4.47
2019-01-18T14:56:03.399Z,3.57
2019-01-18T14:58:35.605Z,3.27
2019-01-18T15:01:07.857Z,4.83
2019-01-18T15:03:40.278Z,5.63
2019-01-18T15:06:12.665Z,3.67
2019-01-18T15:08:45.709Z,3.77
2019-01-18T15:11:17.791Z,4.07
2019-01-18T15:13:49.991Z,2.70
2019-01-18T15:16:22.070Z,3.00
2019-01-18T15:18:57.357Z,7.63
2019-01-18T15:21:30.777Z,3.43
2019-01-18T15:24:02.792Z,4.43
2019-01-18T15:26:35.437Z,2.53
2019-01-18T15:29:10.561Z,3.43
2019-01-18T15:31:44.765Z,2.70
2019-01-18T15:34:17.131Z,5.77
2019-01-18T15:36:50.602Z,3.60
2019-01-18T15:39:22.819Z,6.17
2019-01-18T15:41:56.284Z,3.70
2019-01-18T15:44:28.388Z,2.97
2019-01-18T15:47:00.941Z,5.13
2019-01-18T15:49:33.103Z,6.77
2019-01-18T15:52:06.461Z,6.03
2019-01-18T15:54:38.916Z,5.63
2019-01-18T15:57:10.911Z,3.03
2019-01-18T15:59:43.084Z,3.87
2019-01-18T16:02:15.222Z,4.70
2019-01-18T16:04:48.752Z,5.47
2019-01-18T16:07:21.044Z,4.50
2019-01-18T16:09:53.371Z,3.87
2019-01-18T16:12:26.545Z,4.37
2019-01-18T16:14:59.166Z,7.83
2019-01-18T16:17:34.671Z,9.97
2019-01-18T16:20:10.894Z,9.87
2019-01-18T16:22:42.991Z,8.03
2019-01-18T16:25:29.184Z,7.50
2019-01-18T16:28:03.138Z,6.40
2019-01-18T16:30:35.490Z,6.20
2019-01-18T16:33:07.942Z,4.10
2019-01-18T16:35:39.792Z,4.43
2019-01-18T16:38:13.828Z,4.33
2019-01-18T16:40:46.114Z,6.23
2019-01-18T16:43:21.943Z,4.30
2019-01-18T16:45:56.145Z,5.77
2019-01-18T16:48:28.322Z,5.53
2019-01-18T16:51:00.652Z,4.43
2019-01-18T16:53:34.128Z,5.07
2019-01-18T16:56:06.521Z,5.43
2019-01-18T16:58:38.585Z,6.00
2019-01-18T17:01:11.603Z,5.00
2019-01-18T17:03:45.384Z,4.93
2019-01-18T17:06:18.481Z,6.43
2019-01-18T17:08:50.666Z,20.80
2019-01-18T17:11:22.634Z,9.27
2019-01-18T17:13:55.772Z,5.93
2019-01-18T17:16:28.711Z,6.93
2019-01-18T17:19:00.800Z,9.03
2019-01-18T17:21:33.661Z,6.33
2019-01-18T17:24:08.475Z,6.67
2019-01-18T17:26:40.956Z,10.47
2019-01-18T17:29:13.224Z,7.87
2019-01-18T17:31:51.829Z,9.70
2019-01-18T17:34:26.641Z,6.53
2019-01-18T17:37:04.812Z,8.90
2019-01-18T17:40:09.567Z,8.70
2019-01-18T17:43:22.329Z,8.47
2019-01-18T17:46:39.900Z,6.33
2019-01-18T17:50:22.931Z,6.90
2019-01-18T17:53:21.740Z,11.53
2019-01-18T17:56:24.035Z,11.20
2019-01-18T17:59:28.508Z,11.37
2019-01-18T18:02:17.319Z,13.20
2019-01-18T18:05:16.516Z,14.00
2019-01-18T18:08:21.522Z,11.90
2019-01-18T18:11:37.363Z,15.00
2019-01-18T18:14:36.518Z,14.40
2019-01-18T18:17:49.023Z,11.67
2019-01-18T18:21:11.268Z,12.87
2019-01-18T18:23:57.242Z,13.00
2019-01-18T18:27:10.801Z,18.40
2019-01-18T18:30:27.119Z,15.87
2019-01-18T18:33:35.336Z,18.03
2019-01-18T18:36:55.042Z,20.57
2019-01-18T18:40:12.823Z,18.73
2019-01-18T18:43:07.081Z,18.47
2019-01-18T18:46:29.389Z,22.23
2019-01-18T18:49:57.510Z,16.00
2019-01-18T18:53:21.272Z,19.10
2019-01-18T18:56:32.677Z,19.00
2019-01-18T18:59:42.484Z,20.33
2019-01-18T19:03:03.672Z,22.63
2019-01-18T19:06:21.986Z,22.90
2019-01-18T19:09:49.062Z,22.37
2019-01-18T19:12:46.494Z,23.53
2019-01-18T19:15:56.220Z,21.27
2019-01-18T19:19:10.637Z,19.50
2019-01-18T19:22:14.746Z,23.63
2019-01-18T19:25:34.207Z,18.73
2019-01-18T19:28:31.974Z,19.10
2019-01-18T19:31:36.593Z,23.57
2019-01-18T19:35:00.105Z,16.13
2019-01-18T19:38:10.563Z,21.57
2019-01-18T19:40:51.739Z,20.83
2019-01-18T19:43:53.123Z,22.20
2019-01-18T19:46:59.808Z,20.90
2019-01-18T19:50:36.726Z,19.50
2019-01-18T19:54:00.563Z,17.67
2019-01-18T19:57:09.129Z,15.60
2019-01-18T20:00:24.769Z,16.07
2019-01-18T20:03:43.315Z,18.33
2019-01-18T20:06:57.052Z,19.93
2019-01-18T20:10:03.862Z,22.10
2019-01-18T20:13:17.084Z,20.20
2019-01-18T20:16:43.924Z,19.63
2019-01-18T20:19:59.712Z,20.70
2019-01-18T20:22:46.665Z,20.33
2019-01-18T20:25:27.688Z,23.00
2019-01-18T20:28:35.541Z,21.53
2019-01-18T20:31:30.743Z,20.20
2019-01-18T20:34:52.728Z,21.57
2019-01-18T20:37:42.830Z,19.87
2019-01-18T20:40:50.566Z,22.67
2019-01-18T20:44:04.115Z,22.03
2019-01-18T20:47:26.191Z,22.13
2019-01-18T20:50:19.518Z,22.60
2019-01-18T20:53:35.065Z,20.23
2019-01-18T20:56:56.755Z,17.90
2019-01-18T21:00:01.208Z,17.27
2019-01-18T21:03:14.137Z,20.47
2019-01-18T21:06:08.852Z,18.27
2019-01-18T21:09:13.199Z,21.10
2019-01-18T21:12:36.364Z,17.40
2019-01-18T21:15:40.207Z,17.63
2019-01-18T21:19:02.060Z,20.23
2019-01-18T21:22:19.079Z,19.70
2019-01-18T21:24:58.226Z,19.83
2019-01-18T21:28:06.392Z,18.70
2019-01-18T21:31:20.572Z,18.77
2019-01-18T21:34:32.838Z,18.30
2019-01-18T21:37:41.343Z,16.50
2019-01-18T21:40:39.810Z,18.93
2019-01-18T21:44:06.151Z,18.70
2019-01-18T21:47:10.949Z,23.57
2019-01-18T21:50:01.882Z,18.13
2019-01-18T21:53:07.866Z,16.90
2019-01-18T21:56:14.010Z,16.23
2019-01-18T21:59:44.760Z,17.40
2019-01-18T22:02:44.771Z,16.83
2019-01-18T22:05:51.181Z,17.23
2019-01-18T22:09:02.632Z,16.70
2019-01-18T22:12:16.524Z,19.00
2019-01-18T22:15:27.938Z,18.20
2019-01-18T22:18:38.312Z,19.07
2019-01-18T22:21:49.602Z,19.90
2019-01-18T22:25:07.435Z,19.57
2019-01-18T22:28:22.307Z,17.53
2019-01-18T22:31:23.459Z,17.53
2019-01-18T22:34:22.963Z,16.30
2019-01-18T22:37:31.326Z,17.17
2019-01-18T22:40:25.533Z,16.87
2019-01-18T22:43:27.048Z,17.10
2019-01-18T22:46:34.899Z,16.10
2019-01-18T22:49:48.372Z,17.27
2019-01-18T22:53:09.978Z,17.43
2019-01-18T22:56:11.151Z,17.20
2019-01-18T22:59:01.841Z,15.57
2019-01-18T23:01:53.311Z,16.27
2019-01-18T23:04:55.912Z,20.90
2019-01-18T23:08:10.122Z,18.10
2019-01-18T23:11:17.626Z,19.00
2019-01-18T23:14:39.751Z,18.93
2019-01-18T23:17:39.890Z,19.67
2019-01-18T23:20:57.716Z,19.03
2019-01-18T23:24:15.729Z,17.43
2019-01-18T23:27:13.807Z,18.43
2019-01-18T23:30:03.995Z,18.50
2019-01-18T23:33:09.630Z,17.37
2019-01-18T23:36:18.658Z,18.33
2019-01-18T23:39:32.467Z,17.03
2019-01-18T23:42:36.427Z,16.70
2019-01-18T23:45:55.391Z,16.63
2019-01-18T23:49:17.780Z,15.87
2019-01-18T23:52:36.816Z,18.97
2019-01-18T23:55:33.532Z,16.53
2019-01-18T23:58:49.046Z,19.00
